Hauptseite
METAR-TAF:

METAR-TAF

Flughäfen :

Cranfield Airport

Cranfield, England

Breite: 52-04N, Länge: 000-37W, Höhe: 111 m

Beobachtung

Neuester Wetterbericht von vor 43 Minuten, um 14:20 UTC
Wind 10 kt aus Nord/Nordwest
Temperatur 17°C
Luftfeuchtigkeit 55%
Luftdruck 1027 hPa
Sichtweite 10 km oder mehr
Leicht bewölkt in der Höhe von 4800 ft

METAR: EGTC 111420Z 33010KT 9999 FEW048 17/08 Q1027

Zeit: 16:03 (15:03 UTC)

Prognose

Neuester Wetterbericht von vor 7 Stunden und 5 Minuten, um 07:58 UTC
Gültige Prognose vom 11 um 09 UTC bis 11 um 16 UTC
Wind 12 kt aus Nordwest
Sichtweite 10 km oder mehr
Leicht bewölkt in der Höhe von 4000 ft

TAF: EGTC 110758Z 1109/1116 31012KT 9999 FEW040

Wetterbeobachtungen und Prognosen von mehr als 4000 Flughäfen (METAR und TAF Bericht).

Die verfügbaren Stationen werden durch gelbe und rote Markierungen auf der Karte dargestellt.

Führen Sie die Maus auf sie, um den Namen der Station zu sehen.

Darauf klicken, um die Beobachtung von Wetterbeobachtungen und Prognosen zu sehen.

Um die Karte zu ändern : klicken Sie auf den grünen Tasten mit einem schwarzen Kreuz Zum Vergrößern, auf den grünen Button mit einem Gedankenstrich zu verkleinern, oder auf die grünen Pfeile für benachbarte Karten.


METAR-TAF: